createdAt,value
2022-10-12T00:02:01.569Z,31.60
2022-10-12T00:04:36.268Z,25.70
2022-10-12T00:07:05.409Z,30.63
2022-10-12T00:09:38.040Z,29.42
2022-10-12T00:12:10.351Z,25.20
2022-10-12T00:14:38.134Z,27.75
2022-10-12T00:17:05.895Z,25.08
2022-10-12T00:19:35.645Z,24.65
2022-10-12T00:22:04.136Z,33.40
2022-10-12T00:24:32.055Z,29.70
2022-10-12T00:26:59.543Z,24.95
2022-10-12T00:29:29.995Z,27.10
2022-10-12T00:31:59.126Z,29.42
2022-10-12T00:34:29.534Z,29.70
2022-10-12T00:37:03.999Z,32.08
2022-10-12T00:39:33.043Z,29.58
2022-10-12T00:42:02.442Z,26.55
2022-10-12T00:44:49.469Z,23.90
2022-10-12T00:50:14.686Z,28.77
2022-10-12T00:52:53.166Z,34.38
2022-10-12T00:55:24.674Z,21.27
2022-10-12T00:58:03.731Z,22.48
2022-10-12T01:00:33.904Z,20.75
2022-10-12T01:03:05.922Z,25.60
2022-10-12T01:05:33.676Z,25.48
2022-10-12T01:08:05.503Z,22.92
2022-10-12T01:10:33.447Z,21.13
2022-10-12T01:13:06.809Z,25.58
2022-10-12T01:15:39.891Z,21.40
2022-10-12T01:18:20.165Z,24.05
2022-10-12T01:21:09.173Z,19.60
2022-10-12T01:24:01.997Z,30.92
2022-10-12T01:26:59.615Z,19.58
2022-10-12T01:29:56.303Z,23.33
2022-10-12T01:32:43.629Z,23.15
2022-10-12T01:35:24.095Z,26.83
2022-10-12T01:38:03.218Z,21.25
2022-10-12T01:40:39.411Z,20.88
2022-10-12T01:43:10.367Z,26.40
2022-10-12T01:45:41.041Z,21.83
2022-10-12T01:48:10.723Z,23.65
2022-10-12T01:50:55.536Z,18.35
2022-10-12T01:53:54.447Z,25.73
2022-10-12T01:56:44.693Z,18.92
2022-10-12T01:59:41.270Z,20.85
2022-10-12T02:04:48.064Z,20.83
2022-10-12T02:07:40.607Z,18.27
2022-10-12T02:10:24.792Z,20.85
2022-10-12T02:12:54.346Z,18.60
2022-10-12T02:15:23.857Z,22.33
2022-10-12T02:17:54.713Z,23.38
2022-10-12T02:20:29.047Z,21.25
2022-10-12T02:22:59.489Z,21.50
2022-10-12T02:25:35.852Z,20.95
2022-10-12T02:28:16.445Z,17.63
2022-10-12T02:30:58.699Z,19.75
2022-10-12T02:33:37.731Z,26.33
2022-10-12T02:36:17.437Z,28.13
2022-10-12T02:39:12.342Z,19.85
2022-10-12T02:41:45.618Z,19.13
2022-10-12T02:44:17.106Z,19.58
2022-10-12T02:46:51.886Z,24.05
2022-10-12T02:49:28.454Z,22.17
2022-10-12T02:52:09.496Z,20.67
2022-10-12T02:54:39.223Z,25.00
2022-10-12T02:57:09.564Z,27.15
2022-10-12T02:59:37.049Z,22.80
2022-10-12T03:02:10.210Z,21.65
2022-10-12T03:04:42.642Z,20.20
2022-10-12T03:07:19.017Z,17.65
2022-10-12T03:09:50.068Z,22.85
2022-10-12T03:12:21.157Z,24.10
2022-10-12T03:14:51.349Z,22.05
2022-10-12T03:17:27.690Z,22.75
2022-10-12T03:19:59.678Z,19.35
2022-10-12T03:22:30.167Z,18.80
2022-10-12T03:25:00.422Z,18.50
2022-10-12T03:27:30.810Z,18.88
2022-10-12T03:30:04.263Z,19.52
2022-10-12T03:32:31.887Z,18.33
2022-10-12T03:35:02.854Z,18.88
2022-10-12T03:37:34.320Z,20.83
2022-10-12T03:40:06.786Z,15.70
2022-10-12T03:42:35.642Z,17.95
2022-10-12T03:45:05.812Z,20.15
2022-10-12T03:47:40.286Z,15.77
2022-10-12T03:50:11.349Z,20.73
2022-10-12T03:52:38.528Z,18.65
2022-10-12T03:55:07.421Z,20.83
2022-10-12T03:57:35.862Z,21.02
2022-10-12T04:00:06.703Z,17.83
2022-10-12T04:02:41.308Z,18.10
2022-10-12T04:05:10.255Z,17.20
2022-10-12T04:07:38.082Z,22.58
2022-10-12T04:10:08.322Z,19.35
2022-10-12T04:12:46.104Z,17.38
2022-10-12T04:15:18.387Z,14.20
2022-10-12T04:17:49.864Z,16.48
2022-10-12T04:20:25.253Z,20.88
2022-10-12T04:22:57.359Z,17.58
2022-10-12T04:25:29.984Z,17.77
2022-10-12T04:28:03.410Z,17.63
2022-10-12T04:30:36.458Z,15.70
2022-10-12T04:33:12.677Z,22.00
2022-10-12T04:35:41.481Z,19.20
2022-10-12T04:38:10.731Z,17.50
2022-10-12T04:40:40.861Z,16.17
2022-10-12T04:43:14.706Z,22.05
2022-10-12T04:45:42.863Z,18.38
2022-10-12T04:48:14.561Z,26.15
2022-10-12T04:50:50.239Z,21.63
2022-10-12T04:53:21.834Z,16.88
2022-10-12T04:55:52.418Z,18.77
2022-10-12T04:58:21.363Z,14.15
2022-10-12T05:00:51.126Z,20.50
2022-10-12T05:03:21.502Z,14.02
2022-10-12T05:05:51.613Z,20.85
2022-10-12T05:08:22.273Z,23.23
2022-10-12T05:10:53.134Z,15.93
2022-10-12T05:13:21.522Z,18.67
2022-10-12T05:15:52.829Z,16.55
2022-10-12T05:18:27.572Z,19.38
2022-10-12T05:21:03.758Z,15.38
2022-10-12T05:23:38.047Z,19.35
2022-10-12T05:26:05.634Z,15.63
2022-10-12T05:28:40.626Z,18.70
2022-10-12T05:31:09.050Z,14.18
2022-10-12T05:33:41.499Z,19.30
2022-10-12T05:36:10.689Z,16.50
2022-10-12T05:38:41.048Z,19.48
2022-10-12T05:41:11.082Z,13.75
2022-10-12T05:48:00.671Z,14.10
2022-10-12T05:50:32.520Z,15.48
2022-10-12T05:53:01.826Z,14.43
2022-10-12T05:55:29.133Z,15.95
2022-10-12T05:57:56.464Z,15.32
2022-10-12T06:00:25.642Z,18.80
2022-10-12T06:02:53.138Z,18.73
2022-10-12T06:05:20.581Z,15.02
2022-10-12T06:07:50.373Z,21.23
2022-10-12T06:10:17.518Z,18.23
2022-10-12T06:12:46.851Z,15.73
2022-10-12T06:15:19.944Z,20.05
2022-10-12T06:17:48.185Z,18.63
2022-10-12T06:20:16.480Z,18.35
2022-10-12T06:22:45.589Z,13.50
2022-10-12T06:25:12.991Z,18.83
2022-10-12T06:27:41.789Z,17.42
2022-10-12T06:30:09.337Z,14.05
2022-10-12T06:32:36.875Z,16.55
2022-10-12T06:35:06.719Z,14.45
2022-10-12T06:37:49.502Z,19.13
2022-10-12T06:40:18.902Z,18.98
2022-10-12T06:42:46.225Z,22.85
2022-10-12T06:45:15.648Z,17.05
2022-10-12T06:47:45.217Z,16.73
2022-10-12T06:50:12.932Z,18.17
2022-10-12T06:52:41.677Z,19.17
2022-10-12T06:55:10.778Z,23.23
2022-10-12T06:57:38.749Z,17.90
2022-10-12T07:00:07.696Z,14.85
2022-10-12T07:02:35.727Z,16.25
2022-10-12T07:05:05.769Z,18.98
2022-10-12T07:07:34.148Z,22.17
2022-10-12T07:10:02.509Z,13.35
2022-10-12T07:12:29.709Z,23.20
2022-10-12T07:14:58.033Z,19.58
2022-10-12T07:17:25.896Z,16.00
2022-10-12T07:19:53.420Z,19.80
2022-10-12T07:22:20.840Z,21.70
2022-10-12T07:24:48.650Z,16.42
2022-10-12T07:27:17.202Z,19.77
2022-10-12T07:29:44.320Z,15.20
2022-10-12T07:32:11.454Z,14.48
2022-10-12T07:34:40.334Z,19.80
2022-10-12T07:37:07.679Z,14.77
2022-10-12T07:39:38.296Z,18.98
2022-10-12T07:42:05.657Z,17.10
2022-10-12T07:44:34.113Z,21.63
2022-10-12T07:47:03.711Z,17.95
2022-10-12T07:49:30.901Z,23.33
2022-10-12T07:51:58.229Z,20.85
2022-10-12T07:54:29.205Z,16.05
2022-10-12T07:56:58.984Z,15.88
2022-10-12T07:59:26.945Z,13.93
2022-10-12T08:01:55.387Z,23.45
2022-10-12T08:04:22.646Z,19.80
2022-10-12T08:06:51.613Z,18.65
2022-10-12T08:09:18.984Z,19.17
2022-10-12T08:11:48.743Z,24.13
2022-10-12T08:14:17.380Z,19.13
2022-10-12T08:16:44.864Z,14.23
2022-10-12T08:19:11.958Z,19.52
2022-10-12T08:21:40.415Z,16.85
2022-10-12T08:24:09.379Z,25.52
2022-10-12T08:26:36.803Z,19.13
2022-10-12T08:29:05.942Z,15.38
2022-10-12T08:31:33.204Z,21.02
2022-10-12T08:34:02.094Z,18.45
2022-10-12T08:36:30.989Z,15.23
2022-10-12T08:38:58.512Z,18.25
2022-10-12T08:41:43.480Z,18.65
2022-10-12T08:44:32.305Z,23.98
2022-10-12T08:47:13.061Z,14.38
2022-10-12T08:49:40.992Z,15.88
2022-10-12T08:52:18.702Z,21.92
2022-10-12T08:54:46.334Z,16.73
2022-10-12T08:57:17.819Z,23.13
2022-10-12T08:59:46.163Z,15.63
2022-10-12T09:02:17.794Z,13.02
2022-10-12T09:04:58.924Z,12.45
2022-10-12T09:07:30.599Z,20.95
2022-10-12T09:10:34.554Z,21.83
2022-10-12T09:13:39.452Z,19.67
2022-10-12T09:16:21.268Z,13.60
2022-10-12T09:18:53.905Z,14.77
2022-10-12T09:21:23.149Z,15.38
2022-10-12T09:23:50.412Z,18.95
2022-10-12T09:26:46.131Z,19.00
2022-10-12T09:29:27.776Z,13.10
2022-10-12T09:32:20.926Z,13.05
2022-10-12T09:34:49.005Z,13.00
2022-10-12T09:37:21.829Z,12.95
2022-10-12T09:40:03.790Z,10.80
2022-10-12T09:42:34.841Z,20.17
2022-10-12T09:45:19.130Z,16.95
2022-10-12T09:48:12.118Z,17.00
2022-10-12T09:50:43.941Z,13.45
2022-10-12T09:53:23.389Z,8.35
2022-10-12T09:55:58.605Z,17.20
2022-10-12T09:58:33.970Z,11.73
2022-10-12T10:01:19.527Z,11.45
2022-10-12T10:03:49.285Z,17.20
2022-10-12T10:06:22.913Z,14.00
2022-10-12T10:08:59.370Z,14.05
2022-10-12T10:11:28.657Z,13.40
2022-10-12T10:14:21.293Z,17.05
2022-10-12T10:16:52.759Z,13.18
2022-10-12T10:19:22.105Z,13.53
2022-10-12T10:21:49.787Z,8.55
2022-10-12T10:24:30.863Z,10.00
2022-10-12T10:27:05.698Z,12.75
2022-10-12T10:29:39.847Z,13.65
2022-10-12T10:32:28.841Z,13.88
2022-10-12T10:35:04.486Z,10.40
2022-10-12T10:37:35.412Z,9.68
2022-10-12T10:40:03.206Z,12.68
2022-10-12T10:42:32.737Z,9.63
2022-10-12T10:45:09.158Z,10.88
2022-10-12T10:47:46.595Z,9.70
2022-10-12T10:50:35.565Z,10.60
2022-10-12T10:53:24.570Z,8.95
2022-10-12T10:56:09.636Z,11.48
2022-10-12T10:58:47.786Z,20.73
2022-10-12T11:01:23.920Z,13.20
2022-10-12T11:04:04.820Z,9.90
2022-10-12T11:06:40.908Z,8.93
2022-10-12T11:09:44.830Z,20.00
2022-10-12T11:12:30.237Z,6.75
2022-10-12T11:15:19.604Z,10.48
2022-10-12T11:17:49.779Z,7.80
2022-10-12T11:20:38.578Z,10.30
2022-10-12T11:23:21.033Z,7.40
2022-10-12T11:26:01.807Z,14.88
2022-10-12T11:28:32.304Z,13.52
2022-10-12T11:31:11.931Z,9.90
2022-10-12T11:33:44.497Z,8.60
2022-10-12T11:36:23.544Z,12.00
2022-10-12T11:39:22.826Z,11.15
2022-10-12T11:42:20.334Z,9.07
2022-10-12T11:44:46.404Z,11.77
2022-10-12T11:47:19.213Z,8.98
2022-10-12T11:49:57.201Z,7.07
2022-10-12T11:52:29.081Z,7.80
2022-10-12T11:55:23.801Z,12.32
2022-10-12T11:57:53.168Z,7.13
2022-10-12T12:00:29.865Z,10.45
2022-10-12T12:03:14.781Z,9.77
2022-10-12T12:05:45.169Z,10.30
2022-10-12T12:08:23.571Z,8.82
2022-10-12T12:11:08.168Z,9.40
2022-10-12T12:13:46.384Z,10.13
2022-10-12T12:16:16.422Z,11.02
2022-10-12T12:19:12.864Z,6.28
2022-10-12T12:22:18.995Z,9.93
2022-10-12T12:25:02.187Z,9.38
2022-10-12T12:27:43.510Z,6.75
2022-10-12T12:30:19.784Z,7.85
2022-10-12T12:32:56.523Z,5.75
2022-10-12T12:35:42.616Z,13.43
2022-10-12T12:38:12.844Z,7.97
2022-10-12T12:40:46.229Z,10.50
2022-10-12T12:43:31.688Z,6.40
2022-10-12T12:46:16.196Z,10.43
2022-10-12T12:48:44.630Z,9.65
2022-10-12T12:51:23.890Z,8.10
2022-10-12T12:54:20.404Z,6.60
2022-10-12T12:57:16.131Z,8.80
2022-10-12T12:59:54.389Z,8.82
2022-10-12T13:02:36.764Z,6.60
2022-10-12T13:05:52.056Z,7.03
2022-10-12T13:08:51.518Z,7.00
2022-10-12T13:11:57.821Z,10.57
2022-10-12T13:14:49.714Z,8.15
2022-10-12T13:17:47.666Z,9.55
2022-10-12T13:20:22.255Z,7.60
2022-10-12T13:22:53.329Z,8.48
2022-10-12T13:25:30.017Z,5.07
2022-10-12T13:27:58.600Z,7.82
2022-10-12T13:30:34.945Z,7.68
2022-10-12T13:33:02.286Z,8.15
2022-10-12T13:35:41.979Z,6.63
2022-10-12T13:38:15.691Z,7.88
2022-10-12T13:40:48.708Z,8.65
2022-10-12T13:43:23.403Z,10.13
2022-10-12T13:45:50.532Z,7.30
2022-10-12T13:48:39.781Z,5.88
2022-10-12T13:51:54.077Z,6.18
2022-10-12T13:54:39.419Z,7.80
2022-10-12T14:00:18.272Z,6.07
2022-10-12T14:02:56.799Z,10.07
2022-10-12T14:05:29.168Z,11.50
2022-10-12T14:08:08.281Z,6.00
2022-10-12T14:10:40.727Z,6.88
2022-10-12T14:13:17.574Z,7.63
2022-10-12T14:15:48.091Z,6.75
2022-10-12T14:18:39.729Z,6.80
2022-10-12T14:21:36.866Z,7.95
2022-10-12T14:24:11.602Z,7.15
2022-10-12T14:26:49.943Z,6.05
2022-10-12T14:30:10.666Z,8.10
2022-10-12T14:38:43.958Z,10.25
2022-10-12T14:41:51.206Z,4.65
2022-10-12T14:44:23.079Z,8.40
2022-10-12T14:46:59.383Z,6.38
2022-10-12T14:49:34.313Z,6.80
2022-10-12T14:52:02.351Z,5.22
2022-10-12T14:54:32.000Z,6.20
2022-10-12T14:57:26.047Z,6.57
2022-10-12T15:00:07.049Z,9.52
2022-10-12T15:02:35.130Z,8.75
2022-10-12T15:05:03.997Z,9.05
2022-10-12T15:07:36.397Z,6.82
2022-10-12T15:10:05.317Z,6.32
2022-10-12T15:12:34.363Z,10.70
2022-10-12T15:15:07.898Z,7.72
2022-10-12T15:17:36.782Z,7.72
2022-10-12T15:20:06.112Z,8.00
2022-10-12T15:22:39.060Z,7.15
2022-10-12T15:25:23.037Z,9.27
2022-10-12T15:27:57.364Z,8.77
2022-10-12T15:30:58.006Z,6.13
2022-10-12T15:33:40.752Z,10.95
2022-10-12T15:36:10.364Z,7.85
2022-10-12T15:38:40.133Z,8.32
2022-10-12T15:41:18.230Z,7.20
2022-10-12T15:43:45.344Z,9.48
2022-10-12T15:46:18.175Z,8.27
2022-10-12T15:48:46.312Z,5.75
2022-10-12T15:51:25.380Z,8.52
2022-10-12T15:53:55.759Z,6.32
2022-10-12T15:56:23.013Z,9.27
2022-10-12T15:58:58.988Z,7.07
2022-10-12T16:01:29.222Z,8.38
2022-10-12T16:03:57.999Z,9.63
2022-10-12T16:06:28.640Z,13.57
2022-10-12T16:08:57.851Z,6.00
2022-10-12T16:11:26.466Z,7.45
2022-10-12T16:14:01.848Z,11.00
2022-10-12T16:16:33.791Z,9.20
2022-10-12T16:19:10.963Z,9.63
2022-10-12T16:21:39.586Z,8.07
2022-10-12T16:24:21.475Z,8.88
2022-10-12T16:26:49.938Z,7.93
2022-10-12T16:29:17.052Z,10.63
2022-10-12T16:31:47.553Z,10.38
2022-10-12T16:34:22.912Z,11.00
2022-10-12T16:36:55.746Z,10.38
2022-10-12T16:39:23.173Z,5.45
2022-10-12T16:41:53.941Z,6.55
2022-10-12T16:44:24.065Z,8.80
2022-10-12T16:46:53.632Z,9.15
2022-10-12T16:49:28.527Z,11.52
2022-10-12T16:51:59.298Z,7.63
2022-10-12T16:54:34.313Z,9.05
2022-10-12T16:57:05.942Z,7.50
2022-10-12T16:59:33.150Z,10.57
2022-10-12T17:02:02.854Z,9.32
2022-10-12T17:04:34.140Z,10.77
2022-10-12T17:07:02.733Z,6.90
2022-10-12T17:09:30.960Z,9.25
2022-10-12T17:11:58.438Z,9.82
2022-10-12T17:14:26.025Z,7.28
2022-10-12T17:16:57.134Z,6.30
2022-10-12T17:19:35.350Z,10.93
2022-10-12T17:22:16.608Z,9.20
2022-10-12T17:24:46.850Z,11.25
2022-10-12T17:27:18.226Z,18.00
2022-10-12T17:29:46.796Z,23.35
2022-10-12T17:32:14.641Z,12.82
2022-10-12T17:34:43.708Z,16.58
2022-10-12T17:37:16.093Z,12.95
2022-10-12T17:39:45.822Z,9.45
2022-10-12T17:42:13.705Z,12.90
2022-10-12T17:44:41.570Z,16.70
2022-10-12T17:47:08.748Z,13.40
2022-10-12T17:49:41.838Z,9.05
2022-10-12T17:52:13.364Z,14.93
2022-10-12T17:54:43.945Z,14.10
2022-10-12T17:57:11.535Z,13.68
2022-10-12T17:59:40.828Z,12.90
2022-10-12T18:02:09.785Z,12.77
2022-10-12T18:04:37.430Z,12.15
2022-10-12T18:07:06.399Z,17.85
2022-10-12T18:09:34.201Z,12.13
2022-10-12T18:12:06.307Z,13.73
2022-10-12T18:14:38.738Z,9.60
2022-10-12T18:17:08.120Z,14.15
2022-10-12T18:19:41.262Z,11.60
2022-10-12T18:24:40.652Z,13.82
2022-10-12T18:27:13.111Z,10.63
2022-10-12T18:29:40.317Z,31.00
2022-10-12T18:32:09.064Z,30.45
2022-10-12T18:34:40.838Z,30.27
2022-10-12T18:37:20.859Z,17.20
2022-10-12T18:42:58.977Z,12.48
2022-10-12T18:45:33.102Z,14.10
2022-10-12T18:48:11.089Z,17.30
2022-10-12T18:50:41.530Z,15.45
2022-10-12T18:56:26.742Z,10.60
2022-10-12T18:59:06.161Z,14.05
2022-10-12T19:01:42.988Z,10.48
2022-10-12T19:04:21.320Z,10.98
2022-10-12T19:06:57.592Z,17.17
2022-10-12T19:09:31.064Z,16.83
2022-10-12T19:12:10.143Z,15.70
2022-10-12T19:15:10.754Z,16.50
2022-10-12T19:20:28.927Z,11.77
2022-10-12T19:24:09.889Z,14.23
2022-10-12T19:26:06.258Z,13.98
2022-10-12T19:28:40.086Z,13.63
2022-10-12T19:31:22.950Z,10.32
2022-10-12T19:34:05.315Z,15.38
2022-10-12T19:36:42.055Z,12.45
2022-10-12T19:42:12.323Z,14.02
2022-10-12T19:44:51.967Z,13.98
2022-10-12T19:47:54.227Z,9.13
2022-10-12T19:50:32.166Z,13.85
2022-10-12T19:53:16.738Z,12.90
2022-10-12T19:55:51.370Z,12.05
2022-10-12T19:58:28.981Z,16.13
2022-10-12T20:03:58.425Z,11.80
2022-10-12T20:06:30.303Z,15.98
2022-10-12T20:09:01.173Z,12.85
2022-10-12T20:11:32.018Z,9.93
2022-10-12T20:14:02.059Z,12.27
2022-10-12T20:16:35.198Z,9.13
2022-10-12T20:19:07.462Z,11.30
2022-10-12T20:21:37.605Z,10.98
2022-10-12T20:24:10.445Z,14.68
2022-10-12T20:26:38.444Z,16.15
2022-10-12T20:29:06.729Z,15.75
2022-10-12T20:31:36.368Z,10.23
2022-10-12T20:34:05.744Z,16.35
2022-10-12T20:36:34.743Z,15.52
2022-10-12T20:39:12.500Z,13.07
2022-10-12T20:41:51.639Z,14.18
2022-10-12T20:44:29.450Z,13.73
2022-10-12T20:47:01.337Z,12.90
2022-10-12T20:49:32.711Z,13.73
2022-10-12T20:52:06.763Z,14.48
2022-10-12T20:54:36.577Z,12.63
2022-10-12T20:57:05.522Z,15.68
2022-10-12T20:59:34.721Z,8.98
2022-10-12T21:02:10.549Z,13.60
2022-10-12T21:04:39.543Z,12.98
2022-10-12T21:07:18.610Z,13.68
2022-10-12T21:09:49.026Z,10.73
2022-10-12T21:12:17.015Z,14.25
2022-10-12T21:14:51.245Z,14.88
2022-10-12T21:17:22.421Z,12.38
2022-10-12T21:19:57.060Z,10.18
2022-10-12T21:22:33.725Z,16.80
2022-10-12T21:25:10.993Z,12.55
2022-10-12T21:27:42.145Z,14.70
2022-10-12T21:30:13.056Z,14.25
2022-10-12T21:33:14.867Z,15.35
2022-10-12T21:35:45.581Z,14.85
2022-10-12T21:38:21.453Z,13.90
2022-10-12T21:41:15.152Z,14.20
2022-10-12T21:43:45.512Z,15.50
2022-10-12T21:46:28.591Z,15.40
2022-10-12T21:49:00.874Z,11.48
2022-10-12T21:51:30.209Z,13.80
2022-10-12T21:54:02.482Z,12.68
2022-10-12T21:56:36.488Z,12.02
2022-10-12T21:59:07.187Z,13.25
2022-10-12T22:01:44.347Z,14.38
2022-10-12T22:04:16.237Z,14.02
2022-10-12T22:06:44.971Z,16.52
2022-10-12T22:12:00.309Z,11.07
2022-10-12T22:14:32.333Z,11.43
2022-10-12T22:17:07.483Z,12.45
2022-10-12T22:19:38.696Z,20.05
2022-10-12T22:22:06.594Z,13.60
2022-10-12T22:24:34.478Z,16.33
2022-10-12T22:27:05.101Z,8.95
2022-10-12T22:29:39.801Z,17.92
2022-10-12T22:32:11.007Z,14.75
2022-10-12T22:34:41.538Z,19.25
2022-10-12T22:37:10.233Z,14.63
2022-10-12T22:39:39.495Z,13.48
2022-10-12T22:42:08.090Z,17.77
2022-10-12T22:44:35.466Z,12.32
2022-10-12T22:47:04.040Z,13.43
2022-10-12T22:49:33.061Z,18.60
2022-10-12T22:52:01.631Z,15.60
2022-10-12T22:54:35.247Z,15.48
2022-10-12T22:57:05.545Z,12.98
2022-10-12T22:59:37.519Z,13.77
2022-10-12T23:02:16.043Z,16.42
2022-10-12T23:04:46.930Z,9.90
2022-10-12T23:07:14.340Z,14.77
2022-10-12T23:09:51.707Z,12.93
2022-10-12T23:12:21.437Z,12.80
2022-10-12T23:14:49.349Z,12.73
2022-10-12T23:17:20.337Z,11.25
2022-10-12T23:19:49.625Z,20.85
2022-10-12T23:22:19.182Z,10.23
2022-10-12T23:24:56.001Z,14.32
2022-10-12T23:27:26.575Z,18.83
2022-10-12T23:29:54.469Z,14.98
2022-10-12T23:32:22.688Z,12.63
2022-10-12T23:34:52.705Z,13.13
2022-10-12T23:37:22.508Z,10.93
2022-10-12T23:39:58.540Z,15.77
2022-10-12T23:42:26.898Z,14.90
2022-10-12T23:44:54.492Z,9.55
2022-10-12T23:47:23.420Z,19.13
2022-10-12T23:49:52.164Z,12.18
2022-10-12T23:52:28.411Z,16.67
2022-10-12T23:54:56.496Z,13.40
2022-10-12T23:57:45.545Z,19.90
